Wetterstation CH-8714 Feldbach - Werte rund um die Uhr siehe Startseite
Wetterdaten: aktuell Donnerstag, 16.09.2021 17:40
Datum Zeit Temp.+ 5m S Temp -10 cm Temp + 5 cm Temp +2 m N Feuchte A. BodFeucht Luftdruck Regen Wind Richtung Richtung Sonnenschein Solar Taupunkt Windchill Windben
16.09.2021 17:40 19.2 C 20.6 C 18.3 C 18.3 C 88 % 34 cb 1014.0 hPa 0.0 mm 0.8 km/h W-SW 241 0 min 14 W/m 17.2 C 19.2 C 3.2 km/h
16.09.2021 17:30 19.3 C 20.6 C 18.3 C 18.9 C 87 % 34 cb 1014.0 hPa 0.0 mm 0.3 km/h W-SW 241 0 min 19 W/m 17.1 C 19.3 C 3.2 km/h
16.09.2021 17:20 19.4 C 20.6 C 18.3 C 18.9 C 87 % 34 cb 1014.1 hPa 0.0 mm 0.1 km/h W-SW 241 0 min 26 W/m 17.2 C 19.4 C 1.6 km/h
16.09.2021 17:10 19.4 C 20.6 C 18.3 C 18.9 C 86 % 34 cb 1013.9 hPa 0.0 mm 1.4 km/h W-SW 241 0 min 33 W/m 17.0 C 19.4 C 4.8 km/h
16.09.2021 17:00 19.6 C 20.6 C 18.3 C 18.9 C 86 % 34 cb 1013.7 hPa 0.0 mm 1.4 km/h W-SW 239 0 min 58 W/m 17.2 C 19.6 C 4.8 km/h
16.09.2021 16:50 19.7 C 20.6 C 18.3 C 19.4 C 85 % 34 cb 1013.7 hPa 0.0 mm 0.4 km/h W 260 0 min 69 W/m 17.1 C 19.7 C 4.8 km/h
16.09.2021 16:40 19.7 C 20.6 C 18.3 C 19.4 C 85 % 34 cb 1013.7 hPa 0.0 mm 0.0 km/h W 260 0 min 77 W/m 17.1 C 19.7 C 0.0 km/h
16.09.2021 16:30 19.8 C 20.6 C 18.3 C 19.4 C 85 % 34 cb 1013.9 hPa 0.0 mm 0.0 km/h W 260 0 min 77 W/m 17.2 C 19.8 C 0.0 km/h
16.09.2021 16:20 19.8 C 20.6 C 18.9 C 19.4 C 86 % 34 cb 1014.0 hPa 0.0 mm 0.0 km/h W 260 0 min 84 W/m 17.4 C 19.8 C 0.0 km/h
16.09.2021 16:10 19.8 C 20.6 C 18.3 C 19.4 C 86 % 34 cb 1014.0 hPa 0.0 mm 0.0 km/h W 260 0 min 98 W/m 17.4 C 19.8 C 0.0 km/h
16.09.2021 16:00 19.8 C 21.1 C 18.3 C 19.4 C 86 % 34 cb 1014.0 hPa 0.0 mm 0.6 km/h W 260 0 min 107 W/m 17.4 C 19.8 C 3.2 km/h
16.09.2021 15:50 19.8 C 21.1 C 18.3 C 18.9 C 86 % 34 cb 1014.1 hPa 0.0 mm 0.0 km/h W 260 0 min 100 W/m 17.4 C 19.8 C 0.0 km/h
16.09.2021 15:40 19.7 C 21.1 C 18.3 C 18.9 C 85 % 34 cb 1014.1 hPa 0.2 mm 0.0 km/h W 260 0 min 95 W/m 17.1 C 19.7 C 0.0 km/h
16.09.2021 15:30 19.7 C 21.1 C 18.3 C 19.4 C 86 % 34 cb 1014.1 hPa 0.0 mm 0.0 km/h W 260 0 min 100 W/m 17.3 C 19.7 C 0.0 km/h
16.09.2021 15:20 19.8 C 21.1 C 18.3 C 19.4 C 87 % 34 cb 1014.2 hPa 0.4 mm 0.3 km/h W 260 0 min 132 W/m 17.6 C 19.8 C 3.2 km/h
16.09.2021 15:10 19.7 C 21.1 C 18.3 C 18.9 C 85 % 34 cb 1014.2 hPa 0.0 mm 2.1 km/h W 260 0 min 63 W/m 17.1 C 19.7 C 6.4 km/h
16.09.2021 15:00 19.8 C 21.1 C 18.9 C 19.4 C 84 % 33 cb 1014.2 hPa 0.2 mm 2.1 km/h W-SW 258 0 min 88 W/m 17.0 C 19.8 C 11.3 km/h
16.09.2021 14:50 20.3 C 21.1 C 18.9 C 20.0 C 86 % 33 cb 1014.2 hPa 0.2 mm 1.2 km/h N-NW 341 0 min 46 W/m 17.9 C 20.3 C 6.4 km/h
16.09.2021 14:40 20.3 C 21.1 C 19.4 C 20.6 C 86 % 33 cb 1014.1 hPa 0.0 mm 1.4 km/h W 264 0 min 70 W/m 17.9 C 20.3 C 4.8 km/h
16.09.2021 14:30 20.3 C 21.1 C 19.4 C 20.6 C 86 % 33 cb 1014.1 hPa 0.0 mm 0.6 km/h W-SW 256 0 min 104 W/m 17.9 C 20.3 C 4.8 km/h
16.09.2021 14:20 20.3 C 21.1 C 19.4 C 20.0 C 85 % 33 cb 1014.3 hPa 0.2 mm 4.7 km/h W-SW 256 0 min 120 W/m 17.7 C 20.3 C 8.0 km/h
16.09.2021 14:10 20.7 C 21.1 C 20.0 C 20.6 C 83 % 33 cb 1014.4 hPa 0.0 mm 4.8 km/h W 264 0 min 95 W/m 17.7 C 20.7 C 11.3 km/h
16.09.2021 14:00 20.9 C 21.1 C 20.0 C 21.1 C 81 % 33 cb 1014.4 hPa 0.0 mm 4.1 km/h W 266 0 min 139 W/m 17.5 C 20.9 C 8.0 km/h
16.09.2021 13:50 21.1 C 21.1 C 20.0 C 21.1 C 80 % 33 cb 1014.4 hPa 0.0 mm 5.0 km/h W 267 0 min 137 W/m 17.5 C 21.1 C 11.3 km/h
16.09.2021 13:40 21.3 C 21.1 C 20.6 C 21.1 C 76 % 33 cb 1014.5 hPa 0.0 mm 5.9 km/h W 268 0 min 149 W/m 16.9 C 21.3 C 12.9 km/h
16.09.2021 13:30 21.5 C 21.1 C 20.6 C 21.7 C 76 % 32 cb 1014.4 hPa 0.0 mm 4.9 km/h W 270 0 min 216 W/m 17.1 C 21.5 C 11.3 km/h
16.09.2021 13:20 21.7 C 20.6 C 20.0 C 21.7 C 77 % 32 cb 1014.4 hPa 0.0 mm 3.3 km/h W-SW 253 0 min 211 W/m 17.5 C 21.7 C 8.0 km/h
16.09.2021 13:10 21.8 C 20.6 C 20.0 C 21.7 C 76 % 32 cb 1014.5 hPa 0.0 mm 3.0 km/h W 267 0 min 139 W/m 17.4 C 21.8 C 6.4 km/h
16.09.2021 13:00 22.2 C 20.6 C 20.6 C 21.7 C 74 % 32 cb 1014.6 hPa 0.0 mm 6.8 km/h W 264 0 min 127 W/m 17.3 C 22.1 C 12.9 km/h
16.09.2021 12:50 23.4 C 20.6 C 21.1 C 22.8 C 71 % 32 cb 1014.5 hPa 0.0 mm 4.8 km/h W-SW 243 0 min 207 W/m 17.8 C 23.4 C 12.9 km/h
16.09.2021 12:40 23.6 C 20.6 C 21.1 C 22.8 C 71 % 32 cb 1014.5 hPa 0.0 mm 2.9 km/h W-SW 256 10 min 779 W/m 18.0 C 23.6 C 11.3 km/h
16.09.2021 12:30 23.2 C 20.0 C 20.6 C 21.7 C 74 % 32 cb 1014.6 hPa 0.0 mm 1.0 km/h N-NO 26 10 min 710 W/m 18.3 C 23.2 C 6.4 km/h
16.09.2021 12:20 23.3 C 20.0 C 21.1 C 22.2 C 71 % 32 cb 1014.7 hPa 0.0 mm 2.9 km/h W 260 10 min 388 W/m 17.7 C 23.3 C 11.3 km/h
16.09.2021 12:10 23.7 C 20.0 C 20.6 C 21.7 C 73 % 32 cb 1014.7 hPa 0.0 mm 1.8 km/h S-SW 208 10 min 591 W/m 18.6 C 23.7 C 8.0 km/h
16.09.2021 12:00 23.6 C 20.0 C 21.1 C 22.2 C 75 % 32 cb 1014.8 hPa 0.0 mm 1.6 km/h N-NO 27 10 min 782 W/m 18.9 C 23.6 C 6.4 km/h
16.09.2021 11:50 23.0 C 19.4 C 21.1 C 22.8 C 76 % 32 cb 1014.7 hPa 0.0 mm 1.4 km/h O-NO 62 10 min 682 W/m 18.5 C 23.0 C 8.0 km/h
16.09.2021 11:40 22.2 C 19.4 C 20.6 C 23.3 C 79 % 32 cb 1014.8 hPa 0.0 mm 2.1 km/h W-SW 256 10 min 366 W/m 18.4 C 22.2 C 8.0 km/h
16.09.2021 11:30 21.4 C 19.4 C 20.6 C 23.9 C 82 % 32 cb 1014.9 hPa 0.0 mm 4.3 km/h N-NO 19 10 min 691 W/m 18.2 C 21.4 C 14.5 km/h
16.09.2021 11:20 21.2 C 19.4 C 20.0 C 22.8 C 84 % 32 cb 1014.8 hPa 0.0 mm 1.5 km/h SW 222 0 min 290 W/m 18.4 C 21.2 C 14.5 km/h
16.09.2021 11:10 20.7 C 18.9 C 19.4 C 22.2 C 89 % 31 cb 1014.8 hPa 0.0 mm 0.8 km/h O 96 10 min 450 W/m 18.8 C 20.7 C 3.2 km/h
16.09.2021 11:00 20.1 C 18.9 C 20.0 C 22.2 C 94 % 32 cb 1014.7 hPa 0.0 mm 0.8 km/h NO 47 10 min 432 W/m 19.1 C 20.1 C 4.8 km/h
16.09.2021 10:50 19.1 C 18.9 C 18.3 C 20.0 C 95 % 32 cb 1014.9 hPa 0.0 mm 0.4 km/h NO 34 10 min 323 W/m 18.3 C 19.1 C 3.2 km/h
16.09.2021 10:40 18.6 C 18.9 C 18.3 C 18.9 C 95 % 32 cb 1015.0 hPa 0.0 mm 0.6 km/h W 267 0 min 149 W/m 17.8 C 18.6 C 3.2 km/h
16.09.2021 10:30 18.3 C 18.9 C 18.3 C 18.9 C 95 % 32 cb 1015.1 hPa 0.0 mm 2.3 km/h W 267 0 min 188 W/m 17.5 C 18.3 C 6.4 km/h
16.09.2021 10:20 18.4 C 18.9 C 18.3 C 18.3 C 95 % 32 cb 1015.0 hPa 0.2 mm 0.7 km/h W 266 0 min 127 W/m 17.6 C 18.4 C 6.4 km/h
16.09.2021 10:10 18.4 C 18.9 C 18.3 C 18.9 C 96 % 32 cb 1015.0 hPa 0.2 mm 0.4 km/h W 265 0 min 69 W/m 17.7 C 18.4 C 3.2 km/h
16.09.2021 10:00 18.4 C 18.9 C 18.3 C 18.9 C 96 % 32 cb 1015.0 hPa 0.0 mm 0.7 km/h W 265 0 min 70 W/m 17.7 C 18.4 C 4.8 km/h
16.09.2021 09:50 18.5 C 18.9 C 18.3 C 18.9 C 96 % 32 cb 1014.8 hPa 0.6 mm 0.0 km/h N-NO 33 0 min 76 W/m 17.8 C 18.5 C 0.0 km/h
16.09.2021 09:40 18.3 C 18.9 C 18.3 C 18.3 C 96 % 32 cb 1014.9 hPa 0.0 mm 0.0 km/h N-NO 33 0 min 79 W/m 17.6 C 18.3 C 0.0 km/h
16.09.2021 09:30 18.2 C 18.9 C 18.3 C 18.3 C 96 % 32 cb 1014.8 hPa 0.0 mm 0.0 km/h N-NO 33 0 min 70 W/m 17.6 C 18.2 C 1.6 km/h
16.09.2021 09:20 18.1 C 18.9 C 17.8 C 18.3 C 96 % 32 cb 1014.8 hPa 0.2 mm 0.0 km/h N-NO 33 0 min 53 W/m 17.5 C 18.1 C 0.0 km/h
16.09.2021 09:10 18.1 C 18.9 C 18.3 C 18.3 C 96 % 32 cb 1014.8 hPa 0.0 mm 0.0 km/h N-NO 33 0 min 28 W/m 17.5 C 18.1 C 0.0 km/h
16.09.2021 09:00 17.9 C 18.9 C 18.3 C 18.3 C 96 % 32 cb 1014.8 hPa 0.0 mm 0.0 km/h N-NO 33 0 min 30 W/m 17.3 C 17.9 C 0.0 km/h
16.09.2021 08:50 17.7 C 18.9 C 17.8 C 18.3 C 96 % 32 cb 1014.7 hPa 0.0 mm 0.0 km/h N-NO 33 0 min 132 W/m 17.1 C 17.7 C 0.0 km/h
16.09.2021 08:40 17.4 C 18.9 C 17.8 C 18.3 C 96 % 32 cb 1014.6 hPa 0.0 mm 0.0 km/h N-NO 33 0 min 70 W/m 16.8 C 17.4 C 0.0 km/h
16.09.2021 08:30 17.3 C 18.9 C 17.8 C 17.8 C 96 % 32 cb 1014.5 hPa 0.0 mm 0.0 km/h N-NO 33 0 min 58 W/m 16.7 C 17.3 C 0.0 km/h
16.09.2021 08:20 17.3 C 18.9 C 17.8 C 17.2 C 96 % 32 cb 1014.4 hPa 0.0 mm 0.0 km/h N-NO 33 0 min 28 W/m 16.7 C 17.3 C 1.6 km/h
16.09.2021 08:10 17.2 C 18.9 C 17.2 C 17.2 C 96 % 32 cb 1014.3 hPa 0.0 mm 0.1 km/h N-NO 33 0 min 19 W/m 16.6 C 17.2 C 3.2 km/h
16.09.2021 08:00 17.2 C 18.9 C 17.2 C 17.2 C 96 % 32 cb 1014.3 hPa 0.0 mm 0.0 km/h N-NO 33 0 min 16 W/m 16.6 C 17.2 C 0.0 km/h
16.09.2021 07:50 17.1 C 18.9 C 17.2 C 17.2 C 96 % 32 cb 1014.2 hPa 0.0 mm 0.6 km/h N-NO 33 0 min 19 W/m 16.5 C 17.1 C 3.2 km/h
16.09.2021 07:40 17.1 C 18.9 C 17.2 C 17.2 C 96 % 32 cb 1014.0 hPa 0.0 mm 0.3 km/h N-NO 33 0 min 14 W/m 16.5 C 17.1 C 4.8 km/h
16.09.2021 07:30 17.0 C 18.9 C 17.2 C 17.2 C 96 % 32 cb 1014.1 hPa 0.0 mm 0.4 km/h N-NO 33 0 min 11 W/m 16.4 C 17.0 C 3.2 km/h
16.09.2021 07:20 17.0 C 18.9 C 16.7 C 16.7 C 95 % 32 cb 1014.0 hPa 0.0 mm 0.0 km/h N-NO 33 0 min 11 W/m 16.2 C 17.0 C 0.0 km/h
16.09.2021 07:10 17.0 C 18.9 C 17.2 C 17.2 C 95 % 32 cb 1014.0 hPa 0.0 mm 0.0 km/h N-NO 33 0 min 0 W/m 16.2 C 17.0 C 0.0 km/h
16.09.2021 07:00 17.1 C 18.9 C 17.2 C 17.2 C 95 % 33 cb 1013.9 hPa 0.0 mm 0.0 km/h N-NO 33 0 min 0 W/m 16.3 C 17.1 C 0.0 km/h
16.09.2021 06:50 17.1 C 18.9 C 17.2 C 17.2 C 95 % 33 cb 1014.0 hPa 0.0 mm 0.3 km/h N-NO 33 0 min 0 W/m 16.3 C 17.1 C 3.2 km/h
16.09.2021 06:40 17.1 C 18.9 C 17.2 C 17.2 C 95 % 32 cb 1014.0 hPa 0.0 mm 0.5 km/h N-NO 33 0 min 0 W/m 16.3 C 17.1 C 3.2 km/h
16.09.2021 06:30 17.1 C 18.9 C 17.2 C 17.2 C 95 % 33 cb 1014.1 hPa 0.0 mm 0.4 km/h N-NO 33 0 min 0 W/m 16.3 C 17.1 C 4.8 km/h
16.09.2021 06:20 17.0 C 18.9 C 17.2 C 17.2 C 95 % 32 cb 1014.1 hPa 0.0 mm 0.5 km/h N-NO 33 0 min 0 W/m 16.2 C 17.0 C 3.2 km/h
16.09.2021 06:10 17.0 C 18.9 C 17.2 C 17.2 C 95 % 33 cb 1014.1 hPa 0.0 mm 0.7 km/h N-NO 33 0 min 0 W/m 16.2 C 17.0 C 4.8 km/h
16.09.2021 06:00 17.1 C 18.9 C 17.2 C 16.7 C 95 % 33 cb 1013.9 hPa 0.0 mm 0.1 km/h N-NO 33 0 min 0 W/m 16.3 C 17.1 C 1.6 km/h
16.09.2021 05:50 17.2 C 18.9 C 16.7 C 17.2 C 95 % 33 cb 1014.0 hPa 0.0 mm 0.0 km/h N-NO 33 0 min 0 W/m 16.4 C 17.2 C 0.0 km/h
16.09.2021 05:40 17.2 C 18.9 C 17.2 C 17.2 C 95 % 32 cb 1013.9 hPa 0.0 mm 0.0 km/h N-NO 33 0 min 0 W/m 16.4 C 17.2 C 0.0 km/h
16.09.2021 05:30 17.3 C 18.9 C 17.2 C 17.2 C 95 % 33 cb 1013.9 hPa 0.0 mm 0.2 km/h N-NO 33 0 min 0 W/m 16.5 C 17.3 C 3.2 km/h
16.09.2021 05:20 17.3 C 18.9 C 17.2 C 17.2 C 95 % 33 cb 1013.8 hPa 0.0 mm 0.2 km/h N-NO 33 0 min 0 W/m 16.5 C 17.3 C 3.2 km/h
16.09.2021 05:10 17.4 C 18.9 C 17.2 C 17.8 C 95 % 33 cb 1013.7 hPa 0.0 mm 0.4 km/h N-NO 33 0 min 0 W/m 16.6 C 17.4 C 4.8 km/h
16.09.2021 05:00 17.4 C 18.9 C 17.2 C 17.2 C 95 % 33 cb 1013.7 hPa 0.0 mm 0.0 km/h N-NO 33 0 min 0 W/m 16.6 C 17.4 C 1.6 km/h
16.09.2021 04:50 17.4 C 19.4 C 17.8 C 17.8 C 95 % 33 cb 1013.8 hPa 0.0 mm 0.1 km/h N-NO 33 0 min 0 W/m 16.6 C 17.4 C 1.6 km/h
16.09.2021 04:40 17.4 C 19.4 C 17.2 C 17.8 C 95 % 33 cb 1014.0 hPa 0.0 mm 0.0 km/h N-NO 33 0 min 0 W/m 16.6 C 17.4 C 0.0 km/h
16.09.2021 04:30 17.4 C 19.4 C 17.2 C 17.8 C 95 % 33 cb 1014.1 hPa 0.0 mm 0.0 km/h N-NO 33 0 min 0 W/m 16.6 C 17.4 C 0.0 km/h
16.09.2021 04:20 17.4 C 19.4 C 17.2 C 17.8 C 95 % 33 cb 1013.9 hPa 0.0 mm 0.3 km/h N-NO 33 0 min 0 W/m 16.6 C 17.4 C 3.2 km/h
16.09.2021 04:10 17.4 C 19.4 C 17.2 C 17.8 C 95 % 33 cb 1013.9 hPa 0.2 mm 0.5 km/h N-NO 33 0 min 0 W/m 16.6 C 17.4 C 3.2 km/h
16.09.2021 04:00 17.4 C 19.4 C 17.8 C 17.8 C 95 % 33 cb 1014.0 hPa 0.0 mm 0.9 km/h N-NO 33 0 min 0 W/m 16.6 C 17.4 C 3.2 km/h
16.09.2021 03:50 17.3 C 19.4 C 17.8 C 17.8 C 95 % 33 cb 1014.1 hPa 0.0 mm 1.6 km/h NO 34 0 min 0 W/m 16.5 C 17.3 C 4.8 km/h
16.09.2021 03:40 17.4 C 19.4 C 17.2 C 17.8 C 95 % 33 cb 1014.1 hPa 0.0 mm 1.1 km/h NO 34 0 min 0 W/m 16.6 C 17.4 C 4.8 km/h
16.09.2021 03:30 17.4 C 19.4 C 17.2 C 17.2 C 95 % 33 cb 1014.1 hPa 0.0 mm 0.1 km/h NO 34 0 min 0 W/m 16.6 C 17.4 C 1.6 km/h
16.09.2021 03:20 17.4 C 19.4 C 17.2 C 17.2 C 95 % 33 cb 1014.0 hPa 0.0 mm 0.1 km/h NO 34 0 min 0 W/m 16.6 C 17.4 C 1.6 km/h
16.09.2021 03:10 17.4 C 19.4 C 17.2 C 17.8 C 95 % 33 cb 1013.8 hPa 0.0 mm 0.0 km/h NO 34 0 min 0 W/m 16.6 C 17.4 C 0.0 km/h
16.09.2021 03:00 17.4 C 19.4 C 17.2 C 17.8 C 95 % 33 cb 1013.8 hPa 0.0 mm 1.2 km/h NO 34 0 min 0 W/m 16.6 C 17.4 C 4.8 km/h
16.09.2021 02:50 17.4 C 19.4 C 17.2 C 17.2 C 94 % 33 cb 1013.9 hPa 0.0 mm 0.4 km/h NO 34 0 min 0 W/m 16.4 C 17.4 C 3.2 km/h
16.09.2021 02:40 17.4 C 19.4 C 17.2 C 17.2 C 94 % 33 cb 1014.0 hPa 0.0 mm 0.0 km/h NO 34 0 min 0 W/m 16.4 C 17.4 C 1.6 km/h
16.09.2021 02:30 17.4 C 19.4 C 17.2 C 17.8 C 95 % 33 cb 1014.2 hPa 0.0 mm 0.0 km/h NO 34 0 min 0 W/m 16.6 C 17.4 C 0.0 km/h
16.09.2021 02:20 17.4 C 19.4 C 17.2 C 17.8 C 95 % 33 cb 1014.1 hPa 0.0 mm 0.0 km/h NO 34 0 min 0 W/m 16.6 C 17.4 C 0.0 km/h
16.09.2021 02:10 17.4 C 19.4 C 17.8 C 17.8 C 95 % 33 cb 1014.1 hPa 0.0 mm 0.0 km/h NO 34 0 min 0 W/m 16.6 C 17.4 C 1.6 km/h
16.09.2021 02:00 17.4 C 19.4 C 17.2 C 17.8 C 95 % 33 cb 1014.0 hPa 0.0 mm 0.0 km/h NO 34 0 min 0 W/m 16.6 C 17.4 C 0.0 km/h
16.09.2021 01:50 17.5 C 19.4 C 17.2 C 17.8 C 94 % 33 cb 1013.9 hPa 0.0 mm 0.0 km/h NO 34 0 min 0 W/m 16.5 C 17.5 C 0.0 km/h
16.09.2021 01:40 17.6 C 19.4 C 17.8 C 17.8 C 95 % 33 cb 1014.1 hPa 0.0 mm 0.0 km/h NO 34 0 min 0 W/m 16.8 C 17.6 C 0.0 km/h
16.09.2021 01:30 17.6 C 19.4 C 17.8 C 17.8 C 95 % 33 cb 1014.2 hPa 0.0 mm 0.0 km/h NO 34 0 min 0 W/m 16.8 C 17.6 C 1.6 km/h
16.09.2021 01:20 17.6 C 19.4 C 17.8 C 17.8 C 95 % 33 cb 1014.3 hPa 0.0 mm 0.0 km/h NO 34 0 min 0 W/m 16.8 C 17.6 C 0.0 km/h
16.09.2021 01:10 17.6 C 19.4 C 17.8 C 17.8 C 95 % 33 cb 1014.4 hPa 0.0 mm 0.3 km/h NO 34 0 min 0 W/m 16.8 C 17.6 C 3.2 km/h
16.09.2021 01:00 17.6 C 19.4 C 17.8 C 17.8 C 95 % 33 cb 1014.3 hPa 0.0 mm 0.0 km/h NO 34 0 min 0 W/m 16.8 C 17.6 C 1.6 km/h
16.09.2021 00:50 17.5 C 20.0 C 17.8 C 17.8 C 95 % 34 cb 1014.2 hPa 0.0 mm 0.6 km/h NO 34 0 min 0 W/m 16.7 C 17.5 C 4.8 km/h
16.09.2021 00:40 17.4 C 20.0 C 17.2 C 17.8 C 94 % 34 cb 1014.2 hPa 0.0 mm 0.7 km/h NO 34 0 min 0 W/m 16.4 C 17.4 C 4.8 km/h
16.09.2021 00:30 17.4 C 20.0 C 17.2 C 17.8 C 94 % 34 cb 1014.2 hPa 0.0 mm 2.3 km/h NO 34 0 min 0 W/m 16.4 C 17.4 C 6.4 km/h
16.09.2021 00:20 17.4 C 20.0 C 17.2 C 17.2 C 94 % 34 cb 1014.3 hPa 0.0 mm 1.7 km/h N-NO 33 0 min 0 W/m 16.4 C 17.4 C 6.4 km/h
16.09.2021 00:10 17.6 C 20.0 C 17.2 C 17.2 C 93 % 34 cb 1014.3 hPa 0.0 mm 0.0 km/h NO 37 0 min 0 W/m 16.5 C 17.6 C 0.0 km/h
16.09.2021 00:00 17.6 C 20.0 C 17.2 C 17.8 C 93 % 34 cb 1014.1 hPa 0.0 mm 0.0 km/h NO 37 0 min 0 W/m 16.5 C 17.6 C 0.0 km/h
_ Min-Zeit 07:30 05:00 05:50 06:00 12:20 11:10 05:00 - 00:00 - - - - 06:10 06:10 00:00
Minimum _ 16.9 C 18.9 C 16.7 C 16.7 C 71 % 31 cb 1013.7 hPa - 0.0 km/h - - - - 16.2 C 17.0 C 0.0 km/h
_ Max-Zeit 12:10 13:30 11:50 11:30 07:30 00:00 10:30 09:50 13:00 - - 10:50 12:00 11:00 12:10 11:20
Maximum _ 23.8 C 21.1 C 21.1 C 23.9 C 96 % 34 cb 1015.1 hPa 0.6 mm 6.8 km/h
W
- - 10 min 782 W/m 19.1 C 23.7 C 14.5 km/h
W-SW
Durchschnitt _ 18.8 C 19.7 C 18.3 C 18.9 C 90 % 33 cb 1014.3 hPa #2.6 mm 1.0 km/h N-NO - #1:50 h 171 W/m 17.1 C 18.8 C 3.8 km/h
Achtung: Die Daten werden automatisch gemessen und nicht kontrolliert! Aktualisierung 7/24